Alta Vista, Iowa
Current Conditions -  °F | °C
As of 2:15 PM on Wednesday 28 Jan 2015 (Local Time) from KCCY Reporting Station
Overcast Overcast  
Wind Chill: 22°   Ceiling: 1400
Heat Index: 34°   Visibility: 8mi
Dew Point: 32°   Wind: 21mph
Humidity: 93%   Direction: 140°SE
Pressure: 29.81"   Gusts: 29mph
Location:  43.2°N, 92.42°W
Report Text: KCCY 282015Z AUTO 14018G25KT 8SM OVC014 01/M00 A2981 RMK AO2
Loading
Personal Weather Stations






























Interactive Weather Map New forecast layout! Learn more

10-Day Weather Forecast

Advertisements
Track Severe Weather on mobile